METAR Data
IDs: Format: Raw Decoded Include TAF

Data at: 1714 UTC 03 Dec 2021

EGTK 031650Z 16001KT 9999 R19/1000 FEW038 07/06 Q1001